sensor_id;sensor_type;location;lat;lon;timestamp;P1;durP1;ratioP1;P2;durP2;ratioP2
38499;SDS011;24269;51.894;4.622;2022-12-11T00:02:17;45.35;;;18.20;;
38499;SDS011;24269;51.894;4.622;2022-12-11T00:04:43;40.63;;;17.58;;
38499;SDS011;24269;51.894;4.622;2022-12-11T00:07:08;44.47;;;17.75;;
38499;SDS011;24269;51.894;4.622;2022-12-11T00:09:34;39.03;;;16.45;;
38499;SDS011;24269;51.894;4.622;2022-12-11T00:11:59;40.50;;;17.92;;
38499;SDS011;24269;51.894;4.622;2022-12-11T00:14:26;37.28;;;16.23;;
38499;SDS011;24269;51.894;4.622;2022-12-11T00:16:53;37.85;;;17.05;;
38499;SDS011;24269;51.894;4.622;2022-12-11T00:19:18;34.60;;;16.08;;
38499;SDS011;24269;51.894;4.622;2022-12-11T00:21:44;40.67;;;16.23;;
38499;SDS011;24269;51.894;4.622;2022-12-11T00:24:09;36.55;;;16.38;;
38499;SDS011;24269;51.894;4.622;2022-12-11T00:26:35;35.95;;;15.05;;
38499;SDS011;24269;51.894;4.622;2022-12-11T00:29:01;37.65;;;16.10;;
38499;SDS011;24269;51.894;4.622;2022-12-11T00:31:26;37.30;;;16.02;;
38499;SDS011;24269;51.894;4.622;2022-12-11T00:33:52;39.45;;;15.80;;
38499;SDS011;24269;51.894;4.622;2022-12-11T00:36:19;38.15;;;15.73;;
38499;SDS011;24269;51.894;4.622;2022-12-11T00:38:48;41.60;;;16.80;;
38499;SDS011;24269;51.894;4.622;2022-12-11T00:41:15;32.17;;;15.48;;
38499;SDS011;24269;51.894;4.622;2022-12-11T00:43:41;34.40;;;14.73;;
38499;SDS011;24269;51.894;4.622;2022-12-11T00:46:06;35.05;;;14.73;;
38499;SDS011;24269;51.894;4.622;2022-12-11T00:48:32;33.78;;;14.05;;
38499;SDS011;24269;51.894;4.622;2022-12-11T00:50:58;35.13;;;14.02;;
38499;SDS011;24269;51.894;4.622;2022-12-11T00:53:24;31.50;;;13.70;;
38499;SDS011;24269;51.894;4.622;2022-12-11T00:55:50;26.58;;;13.02;;
38499;SDS011;24269;51.894;4.622;2022-12-11T00:58:16;36.55;;;13.45;;
38499;SDS011;24269;51.894;4.622;2022-12-11T01:00:42;34.28;;;13.82;;
38499;SDS011;24269;51.894;4.622;2022-12-11T01:03:08;33.03;;;12.90;;
38499;SDS011;24269;51.894;4.622;2022-12-11T01:05:34;34.22;;;13.60;;
38499;SDS011;24269;51.894;4.622;2022-12-11T01:08:00;36.70;;;14.50;;
38499;SDS011;24269;51.894;4.622;2022-12-11T01:10:27;34.83;;;14.65;;
38499;SDS011;24269;51.894;4.622;2022-12-11T01:12:53;35.85;;;14.88;;
38499;SDS011;24269;51.894;4.622;2022-12-11T01:15:21;36.05;;;15.05;;
38499;SDS011;24269;51.894;4.622;2022-12-11T01:17:49;32.70;;;14.30;;
38499;SDS011;24269;51.894;4.622;2022-12-11T01:20:15;32.88;;;14.07;;
38499;SDS011;24269;51.894;4.622;2022-12-11T01:22:43;32.40;;;14.15;;
38499;SDS011;24269;51.894;4.622;2022-12-11T01:25:08;27.73;;;11.27;;
38499;SDS011;24269;51.894;4.622;2022-12-11T01:27:35;23.92;;;11.55;;
38499;SDS011;24269;51.894;4.622;2022-12-11T01:30:02;26.00;;;11.95;;
38499;SDS011;24269;51.894;4.622;2022-12-11T01:32:29;26.50;;;11.82;;
38499;SDS011;24269;51.894;4.622;2022-12-11T01:34:55;27.13;;;11.48;;
38499;SDS011;24269;51.894;4.622;2022-12-11T01:37:20;28.10;;;12.20;;
38499;SDS011;24269;51.894;4.622;2022-12-11T01:39:46;32.88;;;13.30;;
38499;SDS011;24269;51.894;4.622;2022-12-11T01:42:15;29.30;;;12.93;;
38499;SDS011;24269;51.894;4.622;2022-12-11T01:47:08;29.38;;;13.40;;
38499;SDS011;24269;51.894;4.622;2022-12-11T01:49:34;30.92;;;12.45;;
38499;SDS011;24269;51.894;4.622;2022-12-11T01:52:18;30.45;;;12.13;;
38499;SDS011;24269;51.894;4.622;2022-12-11T01:54:45;29.58;;;13.07;;
38499;SDS011;24269;51.894;4.622;2022-12-11T01:57:20;27.23;;;12.38;;
38499;SDS011;24269;51.894;4.622;2022-12-11T01:59:46;31.35;;;12.70;;
38499;SDS011;24269;51.894;4.622;2022-12-11T02:02:21;31.35;;;12.43;;
38499;SDS011;24269;51.894;4.622;2022-12-11T02:04:51;31.33;;;12.40;;
38499;SDS011;24269;51.894;4.622;2022-12-11T02:07:17;27.77;;;11.88;;
38499;SDS011;24269;51.894;4.622;2022-12-11T02:09:43;26.17;;;10.82;;
38499;SDS011;24269;51.894;4.622;2022-12-11T02:15:14;24.75;;;11.18;;
38499;SDS011;24269;51.894;4.622;2022-12-11T02:21:40;25.50;;;10.70;;
38499;SDS011;24269;51.894;4.622;2022-12-11T02:29:50;29.13;;;10.70;;
38499;SDS011;24269;51.894;4.622;2022-12-11T02:32:25;26.00;;;10.05;;
38499;SDS011;24269;51.894;4.622;2022-12-11T02:35:01;28.13;;;11.30;;
38499;SDS011;24269;51.894;4.622;2022-12-11T02:37:36;23.30;;;9.98;;
38499;SDS011;24269;51.894;4.622;2022-12-11T02:40:05;25.48;;;10.70;;
38499;SDS011;24269;51.894;4.622;2022-12-11T02:42:34;25.05;;;10.88;;
38499;SDS011;24269;51.894;4.622;2022-12-11T02:45:02;25.27;;;10.82;;
38499;SDS011;24269;51.894;4.622;2022-12-11T02:47:30;23.40;;;9.75;;
38499;SDS011;24269;51.894;4.622;2022-12-11T02:49:57;26.73;;;10.35;;
38499;SDS011;24269;51.894;4.622;2022-12-11T02:52:26;24.88;;;10.57;;
38499;SDS011;24269;51.894;4.622;2022-12-11T02:54:54;27.80;;;12.20;;
38499;SDS011;24269;51.894;4.622;2022-12-11T02:57:25;26.65;;;11.90;;
38499;SDS011;24269;51.894;4.622;2022-12-11T02:59:51;27.27;;;11.18;;
38499;SDS011;24269;51.894;4.622;2022-12-11T03:02:17;26.83;;;11.63;;
38499;SDS011;24269;51.894;4.622;2022-12-11T03:04:43;25.67;;;11.63;;
38499;SDS011;24269;51.894;4.622;2022-12-11T03:07:15;29.23;;;12.45;;
38499;SDS011;24269;51.894;4.622;2022-12-11T03:09:49;26.23;;;11.25;;
38499;SDS011;24269;51.894;4.622;2022-12-11T03:12:17;29.23;;;11.75;;
38499;SDS011;24269;51.894;4.622;2022-12-11T03:14:46;27.77;;;12.23;;
38499;SDS011;24269;51.894;4.622;2022-12-11T03:17:20;25.77;;;12.88;;
38499;SDS011;24269;51.894;4.622;2022-12-11T03:22:38;30.75;;;12.55;;
38499;SDS011;24269;51.894;4.622;2022-12-11T03:28:04;33.03;;;12.45;;
38499;SDS011;24269;51.894;4.622;2022-12-11T03:30:43;24.88;;;10.77;;
38499;SDS011;24269;51.894;4.622;2022-12-11T03:33:10;32.97;;;13.35;;
38499;SDS011;24269;51.894;4.622;2022-12-11T03:35:41;24.17;;;9.13;;
38499;SDS011;24269;51.894;4.622;2022-12-11T03:38:15;23.25;;;9.75;;
38499;SDS011;24269;51.894;4.622;2022-12-11T03:40:52;29.52;;;11.48;;
38499;SDS011;24269;51.894;4.622;2022-12-11T03:43:21;25.88;;;11.80;;
38499;SDS011;24269;51.894;4.622;2022-12-11T03:45:47;26.70;;;10.25;;
38499;SDS011;24269;51.894;4.622;2022-12-11T03:48:15;30.67;;;12.52;;
38499;SDS011;24269;51.894;4.622;2022-12-11T03:50:42;26.23;;;11.68;;
38499;SDS011;24269;51.894;4.622;2022-12-11T03:53:10;28.38;;;12.15;;
38499;SDS011;24269;51.894;4.622;2022-12-11T03:55:36;27.30;;;11.63;;
38499;SDS011;24269;51.894;4.622;2022-12-11T03:58:04;28.48;;;11.80;;
38499;SDS011;24269;51.894;4.622;2022-12-11T04:00:30;29.90;;;11.82;;
38499;SDS011;24269;51.894;4.622;2022-12-11T04:02:55;28.48;;;11.20;;
38499;SDS011;24269;51.894;4.622;2022-12-11T04:05:43;25.77;;;11.55;;
38499;SDS011;24269;51.894;4.622;2022-12-11T04:08:10;29.50;;;11.48;;
38499;SDS011;24269;51.894;4.622;2022-12-11T04:10:36;25.77;;;10.85;;
38499;SDS011;24269;51.894;4.622;2022-12-11T04:13:02;25.13;;;11.50;;
38499;SDS011;24269;51.894;4.622;2022-12-11T04:15:28;26.73;;;11.50;;
38499;SDS011;24269;51.894;4.622;2022-12-11T04:17:53;26.83;;;11.63;;
38499;SDS011;24269;51.894;4.622;2022-12-11T04:20:37;23.67;;;11.30;;
38499;SDS011;24269;51.894;4.622;2022-12-11T04:23:21;25.17;;;10.38;;
38499;SDS011;24269;51.894;4.622;2022-12-11T04:26:06;21.88;;;9.30;;
38499;SDS011;24269;51.894;4.622;2022-12-11T04:28:34;24.80;;;10.32;;
38499;SDS011;24269;51.894;4.622;2022-12-11T04:31:00;25.33;;;10.30;;
38499;SDS011;24269;51.894;4.622;2022-12-11T04:33:26;23.13;;;9.88;;
38499;SDS011;24269;51.894;4.622;2022-12-11T04:35:52;19.00;;;9.07;;
38499;SDS011;24269;51.894;4.622;2022-12-11T04:38:18;21.88;;;9.15;;
38499;SDS011;24269;51.894;4.622;2022-12-11T04:40:44;21.27;;;9.20;;
38499;SDS011;24269;51.894;4.622;2022-12-11T04:43:09;19.33;;;9.48;;
38499;SDS011;24269;51.894;4.622;2022-12-11T04:45:35;19.38;;;9.02;;
38499;SDS011;24269;51.894;4.622;2022-12-11T04:48:00;20.98;;;8.80;;
38499;SDS011;24269;51.894;4.622;2022-12-11T04:50:26;21.58;;;9.50;;
38499;SDS011;24269;51.894;4.622;2022-12-11T04:52:55;21.75;;;9.48;;
38499;SDS011;24269;51.894;4.622;2022-12-11T04:55:21;20.42;;;7.82;;
38499;SDS011;24269;51.894;4.622;2022-12-11T04:57:47;18.35;;;8.15;;
38499;SDS011;24269;51.894;4.622;2022-12-11T05:00:13;19.67;;;8.73;;
38499;SDS011;24269;51.894;4.622;2022-12-11T05:02:40;19.13;;;8.70;;
38499;SDS011;24269;51.894;4.622;2022-12-11T05:05:07;21.85;;;9.02;;
38499;SDS011;24269;51.894;4.622;2022-12-11T05:07:34;19.70;;;9.32;;
38499;SDS011;24269;51.894;4.622;2022-12-11T05:10:00;20.75;;;9.05;;
38499;SDS011;24269;51.894;4.622;2022-12-11T05:12:26;22.70;;;9.07;;
38499;SDS011;24269;51.894;4.622;2022-12-11T05:14:52;19.25;;;8.18;;
38499;SDS011;24269;51.894;4.622;2022-12-11T05:17:19;22.27;;;9.00;;
38499;SDS011;24269;51.894;4.622;2022-12-11T05:19:48;23.90;;;9.52;;
38499;SDS011;24269;51.894;4.622;2022-12-11T05:22:15;20.92;;;9.52;;
38499;SDS011;24269;51.894;4.622;2022-12-11T05:24:42;20.58;;;8.50;;
38499;SDS011;24269;51.894;4.622;2022-12-11T05:27:07;21.15;;;8.95;;
38499;SDS011;24269;51.894;4.622;2022-12-11T05:29:34;21.33;;;9.30;;
38499;SDS011;24269;51.894;4.622;2022-12-11T05:31:59;22.10;;;9.25;;
38499;SDS011;24269;51.894;4.622;2022-12-11T05:34:25;24.30;;;9.60;;
38499;SDS011;24269;51.894;4.622;2022-12-11T05:36:51;20.98;;;8.75;;
38499;SDS011;24269;51.894;4.622;2022-12-11T05:39:17;21.10;;;8.95;;
38499;SDS011;24269;51.894;4.622;2022-12-11T05:41:42;20.63;;;8.95;;
38499;SDS011;24269;51.894;4.622;2022-12-11T05:44:10;18.90;;;8.20;;
38499;SDS011;24269;51.894;4.622;2022-12-11T05:46:36;22.77;;;8.68;;
38499;SDS011;24269;51.894;4.622;2022-12-11T05:49:03;24.08;;;8.80;;
38499;SDS011;24269;51.894;4.622;2022-12-11T05:51:29;22.20;;;8.63;;
38499;SDS011;24269;51.894;4.622;2022-12-11T05:53:55;18.60;;;8.00;;
38499;SDS011;24269;51.894;4.622;2022-12-11T05:56:23;20.73;;;9.02;;
38499;SDS011;24269;51.894;4.622;2022-12-11T05:58:51;19.02;;;7.95;;
38499;SDS011;24269;51.894;4.622;2022-12-11T06:01:18;22.73;;;9.02;;
38499;SDS011;24269;51.894;4.622;2022-12-11T06:04:04;19.40;;;8.77;;
38499;SDS011;24269;51.894;4.622;2022-12-11T06:06:32;20.33;;;7.95;;
38499;SDS011;24269;51.894;4.622;2022-12-11T06:08:58;20.95;;;8.32;;
38499;SDS011;24269;51.894;4.622;2022-12-11T06:11:25;21.40;;;8.23;;
38499;SDS011;24269;51.894;4.622;2022-12-11T06:13:52;21.27;;;8.02;;
38499;SDS011;24269;51.894;4.622;2022-12-11T06:16:19;19.45;;;8.50;;
38499;SDS011;24269;51.894;4.622;2022-12-11T06:18:45;19.63;;;8.00;;
38499;SDS011;24269;51.894;4.622;2022-12-11T06:23:40;22.80;;;8.20;;
38499;SDS011;24269;51.894;4.622;2022-12-11T06:26:07;19.15;;;7.72;;
38499;SDS011;24269;51.894;4.622;2022-12-11T06:28:33;17.05;;;8.70;;
38499;SDS011;24269;51.894;4.622;2022-12-11T06:30:59;19.95;;;7.38;;
38499;SDS011;24269;51.894;4.622;2022-12-11T06:33:25;19.10;;;8.23;;
38499;SDS011;24269;51.894;4.622;2022-12-11T06:35:51;19.92;;;8.35;;
38499;SDS011;24269;51.894;4.622;2022-12-11T06:38:17;20.77;;;8.57;;
38499;SDS011;24269;51.894;4.622;2022-12-11T06:40:43;18.23;;;7.43;;
38499;SDS011;24269;51.894;4.622;2022-12-11T06:43:09;21.92;;;8.35;;
38499;SDS011;24269;51.894;4.622;2022-12-11T06:45:37;17.48;;;7.45;;
38499;SDS011;24269;51.894;4.622;2022-12-11T06:48:03;19.38;;;7.78;;
38499;SDS011;24269;51.894;4.622;2022-12-11T06:50:29;21.23;;;8.50;;
38499;SDS011;24269;51.894;4.622;2022-12-11T06:52:55;18.00;;;7.65;;
38499;SDS011;24269;51.894;4.622;2022-12-11T06:55:20;16.45;;;7.88;;
38499;SDS011;24269;51.894;4.622;2022-12-11T06:57:46;20.73;;;7.90;;
38499;SDS011;24269;51.894;4.622;2022-12-11T07:00:12;20.45;;;9.55;;
38499;SDS011;24269;51.894;4.622;2022-12-11T07:02:38;19.17;;;8.52;;
38499;SDS011;24269;51.894;4.622;2022-12-11T07:05:04;24.75;;;10.07;;
38499;SDS011;24269;51.894;4.622;2022-12-11T07:07:30;24.67;;;10.15;;
38499;SDS011;24269;51.894;4.622;2022-12-11T07:09:56;25.15;;;9.73;;
38499;SDS011;24269;51.894;4.622;2022-12-11T07:12:21;24.95;;;9.55;;
38499;SDS011;24269;51.894;4.622;2022-12-11T07:14:47;24.23;;;9.65;;
38499;SDS011;24269;51.894;4.622;2022-12-11T07:17:13;25.98;;;9.77;;
38499;SDS011;24269;51.894;4.622;2022-12-11T07:19:38;24.73;;;10.48;;
38499;SDS011;24269;51.894;4.622;2022-12-11T07:22:04;19.35;;;9.48;;
38499;SDS011;24269;51.894;4.622;2022-12-11T07:24:30;24.48;;;10.13;;
38499;SDS011;24269;51.894;4.622;2022-12-11T07:26:56;21.40;;;9.35;;
38499;SDS011;24269;51.894;4.622;2022-12-11T07:29:22;15.68;;;8.07;;
38499;SDS011;24269;51.894;4.622;2022-12-11T07:31:47;19.83;;;8.55;;
38499;SDS011;24269;51.894;4.622;2022-12-11T07:34:13;22.27;;;9.07;;
38499;SDS011;24269;51.894;4.622;2022-12-11T07:36:39;21.58;;;8.85;;
38499;SDS011;24269;51.894;4.622;2022-12-11T07:39:05;19.13;;;8.38;;
38499;SDS011;24269;51.894;4.622;2022-12-11T07:41:31;20.42;;;8.38;;
38499;SDS011;24269;51.894;4.622;2022-12-11T07:43:58;18.80;;;8.57;;
38499;SDS011;24269;51.894;4.622;2022-12-11T07:46:25;19.75;;;8.40;;
38499;SDS011;24269;51.894;4.622;2022-12-11T07:48:52;21.65;;;9.70;;
38499;SDS011;24269;51.894;4.622;2022-12-11T07:51:22;21.92;;;9.73;;
38499;SDS011;24269;51.894;4.622;2022-12-11T07:53:52;20.65;;;9.35;;
38499;SDS011;24269;51.894;4.622;2022-12-11T07:56:22;23.05;;;10.30;;
38499;SDS011;24269;51.894;4.622;2022-12-11T07:58:48;25.02;;;9.82;;
38499;SDS011;24269;51.894;4.622;2022-12-11T08:01:15;20.40;;;10.43;;
38499;SDS011;24269;51.894;4.622;2022-12-11T08:06:11;24.35;;;9.30;;
38499;SDS011;24269;51.894;4.622;2022-12-11T08:08:37;24.63;;;10.20;;
38499;SDS011;24269;51.894;4.622;2022-12-11T08:11:04;24.55;;;10.77;;
38499;SDS011;24269;51.894;4.622;2022-12-11T08:13:31;23.67;;;10.40;;
38499;SDS011;24269;51.894;4.622;2022-12-11T08:15:57;24.52;;;9.85;;
38499;SDS011;24269;51.894;4.622;2022-12-11T08:18:23;25.38;;;10.68;;
38499;SDS011;24269;51.894;4.622;2022-12-11T08:20:49;26.77;;;11.00;;
38499;SDS011;24269;51.894;4.622;2022-12-11T08:23:15;28.15;;;10.60;;
38499;SDS011;24269;51.894;4.622;2022-12-11T08:25:40;24.17;;;9.45;;
38499;SDS011;24269;51.894;4.622;2022-12-11T08:28:06;21.80;;;9.98;;
38499;SDS011;24269;51.894;4.622;2022-12-11T08:30:32;23.23;;;9.85;;
38499;SDS011;24269;51.894;4.622;2022-12-11T08:32:58;23.80;;;10.60;;
38499;SDS011;24269;51.894;4.622;2022-12-11T08:35:24;23.52;;;10.27;;
38499;SDS011;24269;51.894;4.622;2022-12-11T08:40:47;21.30;;;9.98;;
38499;SDS011;24269;51.894;4.622;2022-12-11T08:43:13;23.50;;;11.10;;
38499;SDS011;24269;51.894;4.622;2022-12-11T08:45:39;25.52;;;10.00;;
38499;SDS011;24269;51.894;4.622;2022-12-11T08:48:05;22.40;;;9.60;;
38499;SDS011;24269;51.894;4.622;2022-12-11T08:50:31;21.83;;;9.35;;
38499;SDS011;24269;51.894;4.622;2022-12-11T08:52:57;23.73;;;9.55;;
38499;SDS011;24269;51.894;4.622;2022-12-11T08:55:22;20.88;;;9.90;;
38499;SDS011;24269;51.894;4.622;2022-12-11T08:57:48;23.05;;;9.80;;
38499;SDS011;24269;51.894;4.622;2022-12-11T09:00:14;20.23;;;9.73;;
38499;SDS011;24269;51.894;4.622;2022-12-11T09:02:41;24.60;;;10.23;;
38499;SDS011;24269;51.894;4.622;2022-12-11T09:05:06;26.05;;;10.38;;
38499;SDS011;24269;51.894;4.622;2022-12-11T09:07:33;25.67;;;10.57;;
38499;SDS011;24269;51.894;4.622;2022-12-11T09:10:00;24.25;;;10.13;;
38499;SDS011;24269;51.894;4.622;2022-12-11T09:12:27;26.10;;;11.48;;
38499;SDS011;24269;51.894;4.622;2022-12-11T09:14:53;22.27;;;10.50;;
38499;SDS011;24269;51.894;4.622;2022-12-11T09:17:19;21.73;;;9.45;;
38499;SDS011;24269;51.894;4.622;2022-12-11T09:19:45;26.98;;;10.90;;
38499;SDS011;24269;51.894;4.622;2022-12-11T09:22:11;25.73;;;11.40;;
38499;SDS011;24269;51.894;4.622;2022-12-11T09:24:37;27.25;;;11.43;;
38499;SDS011;24269;51.894;4.622;2022-12-11T09:27:04;27.10;;;11.52;;
38499;SDS011;24269;51.894;4.622;2022-12-11T09:29:31;28.27;;;11.55;;
38499;SDS011;24269;51.894;4.622;2022-12-11T09:31:56;27.42;;;11.45;;
38499;SDS011;24269;51.894;4.622;2022-12-11T09:34:22;25.00;;;10.57;;
38499;SDS011;24269;51.894;4.622;2022-12-11T09:36:48;27.92;;;10.38;;
38499;SDS011;24269;51.894;4.622;2022-12-11T09:39:15;28.52;;;11.80;;
38499;SDS011;24269;51.894;4.622;2022-12-11T09:44:48;29.40;;;12.05;;
38499;SDS011;24269;51.894;4.622;2022-12-11T09:47:18;28.55;;;11.80;;
38499;SDS011;24269;51.894;4.622;2022-12-11T09:50:09;34.45;;;12.85;;
38499;SDS011;24269;51.894;4.622;2022-12-11T09:55:19;32.90;;;13.00;;
38499;SDS011;24269;51.894;4.622;2022-12-11T10:00:37;29.15;;;11.73;;
38499;SDS011;24269;51.894;4.622;2022-12-11T10:14:11;27.85;;;11.02;;
38499;SDS011;24269;51.894;4.622;2022-12-11T10:19:40;26.92;;;12.32;;
38499;SDS011;24269;51.894;4.622;2022-12-11T10:22:11;29.30;;;11.93;;
38499;SDS011;24269;51.894;4.622;2022-12-11T10:24:53;29.38;;;11.93;;
38499;SDS011;24269;51.894;4.622;2022-12-11T10:27:28;31.27;;;12.27;;
38499;SDS011;24269;51.894;4.622;2022-12-11T10:30:00;30.92;;;12.43;;
38499;SDS011;24269;51.894;4.622;2022-12-11T10:32:36;36.38;;;13.15;;
38499;SDS011;24269;51.894;4.622;2022-12-11T10:35:06;31.20;;;13.45;;
38499;SDS011;24269;51.894;4.622;2022-12-11T10:37:41;35.17;;;12.65;;
38499;SDS011;24269;51.894;4.622;2022-12-11T10:40:07;34.03;;;13.35;;
38499;SDS011;24269;51.894;4.622;2022-12-11T10:42:34;31.58;;;12.45;;
38499;SDS011;24269;51.894;4.622;2022-12-11T10:45:03;33.58;;;13.43;;
38499;SDS011;24269;51.894;4.622;2022-12-11T10:47:29;30.35;;;12.73;;
38499;SDS011;24269;51.894;4.622;2022-12-11T10:49:58;30.05;;;11.93;;
38499;SDS011;24269;51.894;4.622;2022-12-11T10:52:33;31.63;;;12.43;;
38499;SDS011;24269;51.894;4.622;2022-12-11T10:55:06;29.88;;;11.68;;
38499;SDS011;24269;51.894;4.622;2022-12-11T10:57:44;37.33;;;12.70;;
38499;SDS011;24269;51.894;4.622;2022-12-11T11:03:34;34.05;;;11.82;;
38499;SDS011;24269;51.894;4.622;2022-12-11T11:06:14;36.97;;;13.23;;
38499;SDS011;24269;51.894;4.622;2022-12-11T11:08:46;34.10;;;11.98;;
38499;SDS011;24269;51.894;4.622;2022-12-11T11:16:11;35.25;;;13.25;;
38499;SDS011;24269;51.894;4.622;2022-12-11T11:18:39;35.13;;;12.48;;
38499;SDS011;24269;51.894;4.622;2022-12-11T11:21:14;36.88;;;12.57;;
38499;SDS011;24269;51.894;4.622;2022-12-11T11:23:41;31.80;;;12.25;;
38499;SDS011;24269;51.894;4.622;2022-12-11T11:26:08;36.85;;;13.77;;
38499;SDS011;24269;51.894;4.622;2022-12-11T11:28:36;33.67;;;12.32;;
38499;SDS011;24269;51.894;4.622;2022-12-11T11:33:43;35.92;;;12.65;;
38499;SDS011;24269;51.894;4.622;2022-12-11T11:36:25;44.75;;;14.80;;
38499;SDS011;24269;51.894;4.622;2022-12-11T11:41:48;32.08;;;11.85;;
38499;SDS011;24269;51.894;4.622;2022-12-11T11:44:18;37.10;;;12.65;;
38499;SDS011;24269;51.894;4.622;2022-12-11T11:53:06;35.17;;;13.27;;
38499;SDS011;24269;51.894;4.622;2022-12-11T11:58:42;35.30;;;12.68;;
38499;SDS011;24269;51.894;4.622;2022-12-11T12:01:16;37.05;;;13.10;;
38499;SDS011;24269;51.894;4.622;2022-12-11T12:03:44;36.55;;;12.73;;
38499;SDS011;24269;51.894;4.622;2022-12-11T12:11:39;31.33;;;12.32;;
38499;SDS011;24269;51.894;4.622;2022-12-11T12:16:58;37.47;;;14.15;;
38499;SDS011;24269;51.894;4.622;2022-12-11T12:27:44;42.53;;;14.68;;
38499;SDS011;24269;51.894;4.622;2022-12-11T12:30:30;34.63;;;13.10;;
38499;SDS011;24269;51.894;4.622;2022-12-11T12:33:14;33.78;;;13.18;;
38499;SDS011;24269;51.894;4.622;2022-12-11T12:44:11;38.38;;;13.63;;
38499;SDS011;24269;51.894;4.622;2022-12-11T12:46:48;41.83;;;14.05;;
38499;SDS011;24269;51.894;4.622;2022-12-11T12:49:17;33.45;;;13.38;;
38499;SDS011;24269;51.894;4.622;2022-12-11T12:51:54;38.38;;;14.57;;
38499;SDS011;24269;51.894;4.622;2022-12-11T12:54:21;31.10;;;13.13;;
38499;SDS011;24269;51.894;4.622;2022-12-11T12:56:50;35.80;;;13.20;;
38499;SDS011;24269;51.894;4.622;2022-12-11T12:59:17;35.75;;;13.80;;
38499;SDS011;24269;51.894;4.622;2022-12-11T13:01:53;34.08;;;12.32;;
38499;SDS011;24269;51.894;4.622;2022-12-11T13:04:43;29.48;;;12.10;;
38499;SDS011;24269;51.894;4.622;2022-12-11T13:07:10;27.23;;;11.60;;
38499;SDS011;24269;51.894;4.622;2022-12-11T13:09:54;27.88;;;11.48;;
38499;SDS011;24269;51.894;4.622;2022-12-11T13:12:39;24.63;;;11.65;;
38499;SDS011;24269;51.894;4.622;2022-12-11T13:15:29;28.95;;;11.43;;
38499;SDS011;24269;51.894;4.622;2022-12-11T13:20:59;27.40;;;10.52;;
38499;SDS011;24269;51.894;4.622;2022-12-11T13:23:29;30.42;;;11.05;;
38499;SDS011;24269;51.894;4.622;2022-12-11T13:25:59;29.13;;;11.88;;
38499;SDS011;24269;51.894;4.622;2022-12-11T13:28:28;30.90;;;12.30;;
38499;SDS011;24269;51.894;4.622;2022-12-11T13:31:21;31.50;;;12.35;;
38499;SDS011;24269;51.894;4.622;2022-12-11T13:33:55;25.95;;;11.65;;
38499;SDS011;24269;51.894;4.622;2022-12-11T13:36:24;30.38;;;12.18;;
38499;SDS011;24269;51.894;4.622;2022-12-11T13:39:05;32.70;;;12.23;;
38499;SDS011;24269;51.894;4.622;2022-12-11T13:41:39;36.42;;;13.40;;
38499;SDS011;24269;51.894;4.622;2022-12-11T13:44:16;29.92;;;13.35;;
38499;SDS011;24269;51.894;4.622;2022-12-11T13:46:46;30.10;;;12.65;;
38499;SDS011;24269;51.894;4.622;2022-12-11T13:49:20;31.55;;;13.15;;
38499;SDS011;24269;51.894;4.622;2022-12-11T13:51:51;28.63;;;12.45;;
38499;SDS011;24269;51.894;4.622;2022-12-11T13:54:27;31.38;;;12.73;;
38499;SDS011;24269;51.894;4.622;2022-12-11T13:59:36;33.58;;;13.05;;
38499;SDS011;24269;51.894;4.622;2022-12-11T14:02:13;28.73;;;11.98;;
38499;SDS011;24269;51.894;4.622;2022-12-11T14:04:56;28.25;;;11.82;;
38499;SDS011;24269;51.894;4.622;2022-12-11T14:07:24;31.13;;;12.55;;
38499;SDS011;24269;51.894;4.622;2022-12-11T14:09:54;29.33;;;11.98;;
38499;SDS011;24269;51.894;4.622;2022-12-11T14:14:51;28.02;;;10.88;;
38499;SDS011;24269;51.894;4.622;2022-12-11T14:17:26;27.35;;;12.65;;
38499;SDS011;24269;51.894;4.622;2022-12-11T14:19:58;30.27;;;11.85;;
38499;SDS011;24269;51.894;4.622;2022-12-11T14:22:26;29.05;;;13.13;;
38499;SDS011;24269;51.894;4.622;2022-12-11T14:24:54;27.67;;;11.65;;
38499;SDS011;24269;51.894;4.622;2022-12-11T14:27:26;26.63;;;11.70;;
38499;SDS011;24269;51.894;4.622;2022-12-11T14:29:52;22.00;;;9.88;;
38499;SDS011;24269;51.894;4.622;2022-12-11T14:32:30;23.23;;;10.07;;
38499;SDS011;24269;51.894;4.622;2022-12-11T14:35:00;24.45;;;10.55;;
38499;SDS011;24269;51.894;4.622;2022-12-11T14:37:29;24.63;;;9.98;;
38499;SDS011;24269;51.894;4.622;2022-12-11T14:39:59;22.23;;;9.15;;
38499;SDS011;24269;51.894;4.622;2022-12-11T14:42:49;24.40;;;10.30;;
38499;SDS011;24269;51.894;4.622;2022-12-11T14:45:23;22.88;;;10.05;;
38499;SDS011;24269;51.894;4.622;2022-12-11T14:47:58;23.98;;;9.70;;
38499;SDS011;24269;51.894;4.622;2022-12-11T14:50:28;20.50;;;9.35;;
38499;SDS011;24269;51.894;4.622;2022-12-11T14:52:59;24.10;;;10.43;;
38499;SDS011;24269;51.894;4.622;2022-12-11T14:55:34;21.90;;;9.55;;
38499;SDS011;24269;51.894;4.622;2022-12-11T14:58:05;26.23;;;10.45;;
38499;SDS011;24269;51.894;4.622;2022-12-11T15:00:42;22.80;;;10.38;;
38499;SDS011;24269;51.894;4.622;2022-12-11T15:06:17;27.40;;;10.52;;
38499;SDS011;24269;51.894;4.622;2022-12-11T15:09:15;26.25;;;11.05;;
38499;SDS011;24269;51.894;4.622;2022-12-11T15:11:41;23.20;;;10.43;;
38499;SDS011;24269;51.894;4.622;2022-12-11T15:14:08;23.60;;;10.82;;
38499;SDS011;24269;51.894;4.622;2022-12-11T15:16:37;26.08;;;11.43;;
38499;SDS011;24269;51.894;4.622;2022-12-11T15:19:05;22.08;;;10.65;;
38499;SDS011;24269;51.894;4.622;2022-12-11T15:21:32;21.60;;;10.55;;
38499;SDS011;24269;51.894;4.622;2022-12-11T15:24:03;24.65;;;10.48;;
38499;SDS011;24269;51.894;4.622;2022-12-11T15:26:37;28.23;;;10.93;;
38499;SDS011;24269;51.894;4.622;2022-12-11T15:34:42;22.42;;;9.75;;
38499;SDS011;24269;51.894;4.622;2022-12-11T15:37:16;25.25;;;10.32;;
38499;SDS011;24269;51.894;4.622;2022-12-11T15:39:42;22.38;;;10.63;;
38499;SDS011;24269;51.894;4.622;2022-12-11T15:42:08;28.17;;;11.82;;
38499;SDS011;24269;51.894;4.622;2022-12-11T15:44:37;24.25;;;10.77;;
38499;SDS011;24269;51.894;4.622;2022-12-11T15:47:14;25.25;;;9.95;;
38499;SDS011;24269;51.894;4.622;2022-12-11T15:49:46;25.90;;;10.98;;
38499;SDS011;24269;51.894;4.622;2022-12-11T15:52:12;25.40;;;9.98;;
38499;SDS011;24269;51.894;4.622;2022-12-11T15:54:37;22.38;;;9.77;;
38499;SDS011;24269;51.894;4.622;2022-12-11T15:57:03;26.45;;;10.80;;
38499;SDS011;24269;51.894;4.622;2022-12-11T15:59:31;27.92;;;11.55;;
38499;SDS011;24269;51.894;4.622;2022-12-11T16:01:57;27.73;;;11.48;;
38499;SDS011;24269;51.894;4.622;2022-12-11T16:04:23;25.20;;;10.27;;
38499;SDS011;24269;51.894;4.622;2022-12-11T16:06:49;24.20;;;10.60;;
38499;SDS011;24269;51.894;4.622;2022-12-11T16:09:15;21.17;;;9.82;;
38499;SDS011;24269;51.894;4.622;2022-12-11T16:11:41;26.67;;;9.93;;
38499;SDS011;24269;51.894;4.622;2022-12-11T16:14:06;22.85;;;9.93;;
38499;SDS011;24269;51.894;4.622;2022-12-11T16:16:32;20.55;;;9.52;;
38499;SDS011;24269;51.894;4.622;2022-12-11T16:18:58;21.50;;;9.70;;
38499;SDS011;24269;51.894;4.622;2022-12-11T16:21:24;20.52;;;8.77;;
38499;SDS011;24269;51.894;4.622;2022-12-11T16:23:50;22.92;;;10.18;;
38499;SDS011;24269;51.894;4.622;2022-12-11T16:26:16;23.45;;;9.93;;
38499;SDS011;24269;51.894;4.622;2022-12-11T16:28:42;27.20;;;11.20;;
38499;SDS011;24269;51.894;4.622;2022-12-11T16:31:11;22.42;;;9.77;;
38499;SDS011;24269;51.894;4.622;2022-12-11T16:33:37;25.45;;;10.30;;